sensor_id;sensor_type;location;lat;lon;timestamp;pressure;altitude;pressure_sealevel;temperature;humidity
45275;BME280;31019;43.780;25.948;2024-03-22T00:00:07;101567.03;;;-0.25;100.00
45275;BME280;31019;43.780;25.948;2024-03-22T00:02:37;101569.88;;;-0.39;100.00
45275;BME280;31019;43.780;25.948;2024-03-22T00:05:05;101568.91;;;-0.38;100.00
45275;BME280;31019;43.780;25.948;2024-03-22T00:07:31;101563.69;;;-0.38;100.00
45275;BME280;31019;43.780;25.948;2024-03-22T00:09:58;101558.34;;;-0.72;100.00
45275;BME280;31019;43.780;25.948;2024-03-22T00:12:25;101563.47;;;-0.35;100.00
45275;BME280;31019;43.780;25.948;2024-03-22T00:14:52;101564.97;;;-0.43;100.00
45275;BME280;31019;43.780;25.948;2024-03-22T00:17:20;101557.59;;;-0.50;100.00
45275;BME280;31019;43.780;25.948;2024-03-22T00:19:47;101565.63;;;-0.29;100.00
45275;BME280;31019;43.780;25.948;2024-03-22T00:22:14;101554.88;;;-0.02;100.00
45275;BME280;31019;43.780;25.948;2024-03-22T00:24:41;101563.59;;;-0.36;100.00
45275;BME280;31019;43.780;25.948;2024-03-22T00:27:08;101551.69;;;-0.76;100.00
45275;BME280;31019;43.780;25.948;2024-03-22T00:29:37;101553.69;;;-0.79;100.00
45275;BME280;31019;43.780;25.948;2024-03-22T00:32:03;101556.84;;;-0.63;100.00
45275;BME280;31019;43.780;25.948;2024-03-22T00:34:33;101555.16;;;-0.75;100.00
45275;BME280;31019;43.780;25.948;2024-03-22T00:37:00;101550.34;;;-0.57;100.00
45275;BME280;31019;43.780;25.948;2024-03-22T00:39:29;101548.00;;;-0.49;100.00
45275;BME280;31019;43.780;25.948;2024-03-22T00:41:55;101545.31;;;-0.96;100.00
45275;BME280;31019;43.780;25.948;2024-03-22T00:44:22;101554.19;;;-0.74;100.00
45275;BME280;31019;43.780;25.948;2024-03-22T00:46:48;101550.63;;;-0.97;100.00
45275;BME280;31019;43.780;25.948;2024-03-22T00:49:15;101561.47;;;-1.27;100.00
45275;BME280;31019;43.780;25.948;2024-03-22T00:51:41;101560.00;;;-1.19;100.00
45275;BME280;31019;43.780;25.948;2024-03-22T00:54:09;101555.22;;;-1.25;100.00
45275;BME280;31019;43.780;25.948;2024-03-22T00:56:37;101556.47;;;-1.18;100.00
45275;BME280;31019;43.780;25.948;2024-03-22T00:59:04;101549.09;;;-1.36;100.00
45275;BME280;31019;43.780;25.948;2024-03-22T01:01:30;101558.78;;;-1.26;100.00
45275;BME280;31019;43.780;25.948;2024-03-22T01:03:57;101565.16;;;-1.30;100.00
45275;BME280;31019;43.780;25.948;2024-03-22T01:06:23;101565.50;;;-1.47;100.00
45275;BME280;31019;43.780;25.948;2024-03-22T01:08:58;101566.22;;;-1.08;100.00
45275;BME280;31019;43.780;25.948;2024-03-22T01:11:25;101567.06;;;-0.84;100.00
45275;BME280;31019;43.780;25.948;2024-03-22T01:13:54;101559.94;;;-1.30;100.00
45275;BME280;31019;43.780;25.948;2024-03-22T01:16:20;101558.50;;;-0.62;100.00
45275;BME280;31019;43.780;25.948;2024-03-22T01:18:47;101560.53;;;-0.30;100.00
45275;BME280;31019;43.780;25.948;2024-03-22T01:21:14;101566.13;;;-0.12;100.00
45275;BME280;31019;43.780;25.948;2024-03-22T01:23:41;101559.16;;;-0.12;100.00
45275;BME280;31019;43.780;25.948;2024-03-22T01:26:07;101552.28;;;-0.02;100.00
45275;BME280;31019;43.780;25.948;2024-03-22T01:28:34;101559.63;;;-0.18;100.00
45275;BME280;31019;43.780;25.948;2024-03-22T01:31:01;101560.22;;;0.08;100.00
45275;BME280;31019;43.780;25.948;2024-03-22T01:33:28;101565.69;;;0.05;100.00
45275;BME280;31019;43.780;25.948;2024-03-22T01:35:54;101569.97;;;0.17;100.00
45275;BME280;31019;43.780;25.948;2024-03-22T01:38:22;101572.84;;;0.37;100.00
45275;BME280;31019;43.780;25.948;2024-03-22T01:40:48;101569.75;;;0.09;100.00
45275;BME280;31019;43.780;25.948;2024-03-22T01:43:15;101573.69;;;0.37;100.00
45275;BME280;31019;43.780;25.948;2024-03-22T01:45:41;101573.19;;;0.32;100.00
45275;BME280;31019;43.780;25.948;2024-03-22T01:48:11;101566.78;;;0.36;100.00
45275;BME280;31019;43.780;25.948;2024-03-22T01:50:37;101569.50;;;0.57;100.00
45275;BME280;31019;43.780;25.948;2024-03-22T01:53:05;101565.56;;;0.63;100.00
45275;BME280;31019;43.780;25.948;2024-03-22T01:55:31;101560.97;;;0.55;100.00
45275;BME280;31019;43.780;25.948;2024-03-22T01:57:58;101568.22;;;0.40;100.00
45275;BME280;31019;43.780;25.948;2024-03-22T02:00:24;101560.38;;;0.29;100.00
45275;BME280;31019;43.780;25.948;2024-03-22T02:02:51;101561.19;;;0.30;100.00
45275;BME280;31019;43.780;25.948;2024-03-22T02:05:19;101571.41;;;0.33;100.00
45275;BME280;31019;43.780;25.948;2024-03-22T02:07:47;101568.22;;;0.40;100.00
45275;BME280;31019;43.780;25.948;2024-03-22T02:10:14;101558.47;;;0.20;100.00
45275;BME280;31019;43.780;25.948;2024-03-22T02:12:42;101567.50;;;0.61;100.00
45275;BME280;31019;43.780;25.948;2024-03-22T02:15:08;101566.75;;;0.81;100.00
45275;BME280;31019;43.780;25.948;2024-03-22T02:17:37;101570.00;;;1.06;100.00
45275;BME280;31019;43.780;25.948;2024-03-22T02:20:03;101575.28;;;0.95;100.00
45275;BME280;31019;43.780;25.948;2024-03-22T02:22:33;101574.91;;;0.99;100.00
45275;BME280;31019;43.780;25.948;2024-03-22T02:25:00;101573.72;;;1.03;100.00
45275;BME280;31019;43.780;25.948;2024-03-22T02:27:27;101577.19;;;1.04;100.00
45275;BME280;31019;43.780;25.948;2024-03-22T02:29:53;101578.59;;;1.08;100.00
45275;BME280;31019;43.780;25.948;2024-03-22T02:32:20;101574.41;;;1.17;100.00
45275;BME280;31019;43.780;25.948;2024-03-22T02:34:47;101575.50;;;1.03;100.00
45275;BME280;31019;43.780;25.948;2024-03-22T02:37:16;101578.59;;;1.08;100.00
45275;BME280;31019;43.780;25.948;2024-03-22T02:39:47;101588.44;;;1.48;100.00
45275;BME280;31019;43.780;25.948;2024-03-22T02:42:15;101592.16;;;1.66;100.00
45275;BME280;31019;43.780;25.948;2024-03-22T02:44:41;101589.31;;;1.90;100.00
45275;BME280;31019;43.780;25.948;2024-03-22T02:47:09;101594.38;;;1.82;100.00
45275;BME280;31019;43.780;25.948;2024-03-22T02:49:35;101596.28;;;1.80;100.00
45275;BME280;31019;43.780;25.948;2024-03-22T02:52:03;101594.28;;;1.72;100.00
45275;BME280;31019;43.780;25.948;2024-03-22T02:54:29;101594.53;;;1.69;100.00
45275;BME280;31019;43.780;25.948;2024-03-22T02:56:58;101591.31;;;1.12;100.00
45275;BME280;31019;43.780;25.948;2024-03-22T02:59:27;101592.72;;;1.17;100.00
45275;BME280;31019;43.780;25.948;2024-03-22T03:01:54;101590.75;;;0.86;100.00
45275;BME280;31019;43.780;25.948;2024-03-22T03:04:20;101599.97;;;1.24;100.00
45275;BME280;31019;43.780;25.948;2024-03-22T03:06:47;101593.84;;;1.35;100.00
45275;BME280;31019;43.780;25.948;2024-03-22T03:09:13;101598.41;;;1.22;100.00
45275;BME280;31019;43.780;25.948;2024-03-22T03:11:41;101593.28;;;1.31;100.00
45275;BME280;31019;43.780;25.948;2024-03-22T03:14:07;101585.66;;;1.28;100.00
45275;BME280;31019;43.780;25.948;2024-03-22T03:16:35;101589.31;;;1.37;100.00
45275;BME280;31019;43.780;25.948;2024-03-22T03:19:01;101591.88;;;1.48;100.00
45275;BME280;31019;43.780;25.948;2024-03-22T03:21:28;101590.47;;;1.44;100.00
45275;BME280;31019;43.780;25.948;2024-03-22T03:23:54;101593.16;;;1.54;100.00
45275;BME280;31019;43.780;25.948;2024-03-22T03:26:23;101597.47;;;1.23;100.00
45275;BME280;31019;43.780;25.948;2024-03-22T03:28:49;101595.72;;;1.44;100.00
45275;BME280;31019;43.780;25.948;2024-03-22T03:31:17;101597.50;;;1.44;100.00
45275;BME280;31019;43.780;25.948;2024-03-22T03:33:44;101599.91;;;1.35;100.00
45275;BME280;31019;43.780;25.948;2024-03-22T03:36:11;101596.97;;;1.61;100.00
45275;BME280;31019;43.780;25.948;2024-03-22T03:38:37;101596.91;;;1.72;100.00
45275;BME280;31019;43.780;25.948;2024-03-22T03:41:04;101603.56;;;1.76;100.00
45275;BME280;31019;43.780;25.948;2024-03-22T03:43:32;101603.25;;;1.91;100.00
45275;BME280;31019;43.780;25.948;2024-03-22T03:45:59;101606.25;;;1.86;100.00
45275;BME280;31019;43.780;25.948;2024-03-22T03:48:25;101597.53;;;1.65;100.00
45275;BME280;31019;43.780;25.948;2024-03-22T03:50:54;101607.47;;;2.03;100.00
45275;BME280;31019;43.780;25.948;2024-03-22T03:53:21;101612.19;;;1.88;100.00
45275;BME280;31019;43.780;25.948;2024-03-22T03:55:48;101606.50;;;1.83;100.00
45275;BME280;31019;43.780;25.948;2024-03-22T03:58:14;101607.00;;;1.77;100.00
45275;BME280;31019;43.780;25.948;2024-03-22T04:00:43;101618.09;;;1.69;100.00
45275;BME280;31019;43.780;25.948;2024-03-22T04:03:10;101611.16;;;1.58;100.00
45275;BME280;31019;43.780;25.948;2024-03-22T04:05:37;101623.34;;;1.69;100.00
45275;BME280;31019;43.780;25.948;2024-03-22T04:08:05;101626.84;;;1.58;100.00
45275;BME280;31019;43.780;25.948;2024-03-22T04:10:32;101631.25;;;1.58;100.00
45275;BME280;31019;43.780;25.948;2024-03-22T04:12:58;101629.84;;;1.54;100.00
45275;BME280;31019;43.780;25.948;2024-03-22T04:15:27;101633.44;;;1.74;100.00
45275;BME280;31019;43.780;25.948;2024-03-22T04:17:56;101643.97;;;1.95;100.00
45275;BME280;31019;43.780;25.948;2024-03-22T04:20:23;101635.69;;;1.78;100.00
45275;BME280;31019;43.780;25.948;2024-03-22T04:22:49;101643.97;;;1.95;100.00
45275;BME280;31019;43.780;25.948;2024-03-22T04:25:19;101649.81;;;1.87;100.00
45275;BME280;31019;43.780;25.948;2024-03-22T04:27:45;101646.38;;;1.87;100.00
45275;BME280;31019;43.780;25.948;2024-03-22T04:30:12;101648.53;;;2.02;100.00
45275;BME280;31019;43.780;25.948;2024-03-22T04:32:38;101649.47;;;2.13;100.00
45275;BME280;31019;43.780;25.948;2024-03-22T04:35:06;101640.94;;;1.99;100.00
45275;BME280;31019;43.780;25.948;2024-03-22T04:37:32;101650.66;;;2.09;100.00
45275;BME280;31019;43.780;25.948;2024-03-22T04:39:59;101658.38;;;1.89;100.00
45275;BME280;31019;43.780;25.948;2024-03-22T04:42:27;101653.88;;;1.91;100.00
45275;BME280;31019;43.780;25.948;2024-03-22T04:44:54;101652.69;;;1.84;100.00
45275;BME280;31019;43.780;25.948;2024-03-22T04:47:23;101655.38;;;2.15;100.00
45275;BME280;31019;43.780;25.948;2024-03-22T04:49:49;101658.34;;;2.00;100.00
45275;BME280;31019;43.780;25.948;2024-03-22T04:52:16;101658.09;;;2.03;100.00
45275;BME280;31019;43.780;25.948;2024-03-22T04:54:42;101666.78;;;2.04;100.00
45275;BME280;31019;43.780;25.948;2024-03-22T04:57:09;101654.28;;;2.38;100.00
45275;BME280;31019;43.780;25.948;2024-03-22T04:59:36;101657.50;;;2.00;100.00
45275;BME280;31019;43.780;25.948;2024-03-22T05:02:04;101673.34;;;2.40;100.00
45275;BME280;31019;43.780;25.948;2024-03-22T05:04:30;101669.66;;;2.22;100.00
45275;BME280;31019;43.780;25.948;2024-03-22T05:06:57;101675.16;;;2.19;100.00
45275;BME280;31019;43.780;25.948;2024-03-22T05:09:23;101662.59;;;2.64;100.00
45275;BME280;31019;43.780;25.948;2024-03-22T05:11:50;101668.97;;;2.71;100.00
45275;BME280;31019;43.780;25.948;2024-03-22T05:14:18;101671.09;;;2.57;100.00
45275;BME280;31019;43.780;25.948;2024-03-22T05:16:46;101670.25;;;2.56;100.00
45275;BME280;31019;43.780;25.948;2024-03-22T05:19:12;101669.91;;;2.40;100.00
45275;BME280;31019;43.780;25.948;2024-03-22T05:21:39;101659.44;;;2.40;100.00
45275;BME280;31019;43.780;25.948;2024-03-22T05:24:05;101668.97;;;2.71;100.00
45275;BME280;31019;43.780;25.948;2024-03-22T05:26:33;101666.59;;;2.68;100.00
45275;BME280;31019;43.780;25.948;2024-03-22T05:29:02;101675.44;;;2.67;100.00
45275;BME280;31019;43.780;25.948;2024-03-22T05:31:30;101678.41;;;2.84;100.00
45275;BME280;31019;43.780;25.948;2024-03-22T05:33:58;101674.69;;;2.35;100.00
45275;BME280;31019;43.780;25.948;2024-03-22T05:36:25;101678.03;;;2.37;100.00
45275;BME280;31019;43.780;25.948;2024-03-22T05:38:54;101672.13;;;2.44;100.00
45275;BME280;31019;43.780;25.948;2024-03-22T05:41:21;101682.63;;;2.44;100.00
45275;BME280;31019;43.780;25.948;2024-03-22T05:43:47;101687.22;;;2.73;100.00
45275;BME280;31019;43.780;25.948;2024-03-22T05:46:14;101691.97;;;2.89;100.00
45275;BME280;31019;43.780;25.948;2024-03-22T05:48:41;101695.19;;;2.71;100.00
45275;BME280;31019;43.780;25.948;2024-03-22T05:51:09;101703.56;;;2.86;100.00
45275;BME280;31019;43.780;25.948;2024-03-22T05:53:36;101709.06;;;2.83;100.00
45275;BME280;31019;43.780;25.948;2024-03-22T05:56:02;101704.88;;;2.50;100.00
45275;BME280;31019;43.780;25.948;2024-03-22T05:58:29;101707.44;;;2.61;100.00
45275;BME280;31019;43.780;25.948;2024-03-22T06:00:56;101713.66;;;2.91;100.00
45275;BME280;31019;43.780;25.948;2024-03-22T06:03:23;101714.91;;;2.66;100.00
45275;BME280;31019;43.780;25.948;2024-03-22T06:05:50;101715.56;;;2.37;100.00
45275;BME280;31019;43.780;25.948;2024-03-22T06:08:22;101719.84;;;2.59;100.00
45275;BME280;31019;43.780;25.948;2024-03-22T06:10:48;101726.69;;;2.50;100.00
45275;BME280;31019;43.780;25.948;2024-03-22T06:13:15;101731.66;;;2.74;100.00
45275;BME280;31019;43.780;25.948;2024-03-22T06:15:43;101725.66;;;2.63;100.00
45275;BME280;31019;43.780;25.948;2024-03-22T06:18:11;101730.34;;;2.90;100.00
45275;BME280;31019;43.780;25.948;2024-03-22T06:20:38;101734.66;;;3.21;100.00
45275;BME280;31019;43.780;25.948;2024-03-22T06:23:04;101729.78;;;2.86;100.00
45275;BME280;31019;43.780;25.948;2024-03-22T06:25:32;101736.66;;;2.78;100.00
45275;BME280;31019;43.780;25.948;2024-03-22T06:27:58;101731.44;;;2.87;100.00
45275;BME280;31019;43.780;25.948;2024-03-22T06:30:26;101732.91;;;3.01;100.00
45275;BME280;31019;43.780;25.948;2024-03-22T06:32:52;101731.31;;;3.19;100.00
45275;BME280;31019;43.780;25.948;2024-03-22T06:35:20;101739.81;;;3.42;100.00
45275;BME280;31019;43.780;25.948;2024-03-22T06:37:46;101743.16;;;3.14;100.00
45275;BME280;31019;43.780;25.948;2024-03-22T06:40:14;101741.34;;;3.45;100.00
45275;BME280;31019;43.780;25.948;2024-03-22T06:42:42;101737.22;;;3.52;100.00
45275;BME280;31019;43.780;25.948;2024-03-22T06:45:09;101739.47;;;3.76;100.00
45275;BME280;31019;43.780;25.948;2024-03-22T06:47:35;101746.84;;;3.02;100.00
45275;BME280;31019;43.780;25.948;2024-03-22T06:50:03;101745.84;;;3.74;100.00
45275;BME280;31019;43.780;25.948;2024-03-22T06:52:31;101747.47;;;3.65;100.00
45275;BME280;31019;43.780;25.948;2024-03-22T06:54:58;101751.72;;;3.47;100.00
45275;BME280;31019;43.780;25.948;2024-03-22T06:57:24;101750.97;;;3.85;100.00
45275;BME280;31019;43.780;25.948;2024-03-22T06:59:52;101755.78;;;3.60;100.00
45275;BME280;31019;43.780;25.948;2024-03-22T07:02:18;101759.56;;;3.37;100.00
45275;BME280;31019;43.780;25.948;2024-03-22T07:04:46;101753.06;;;4.01;100.00
45275;BME280;31019;43.780;25.948;2024-03-22T07:07:12;101760.09;;;4.20;100.00
45275;BME280;31019;43.780;25.948;2024-03-22T07:09:39;101755.09;;;3.68;100.00
45275;BME280;31019;43.780;25.948;2024-03-22T07:12:06;101759.13;;;4.50;100.00
45275;BME280;31019;43.780;25.948;2024-03-22T07:14:33;101759.84;;;4.13;100.00
45275;BME280;31019;43.780;25.948;2024-03-22T07:17:00;101754.84;;;4.29;100.00
45275;BME280;31019;43.780;25.948;2024-03-22T07:19:27;101755.75;;;4.77;100.00
45275;BME280;31019;43.780;25.948;2024-03-22T07:21:54;101758.19;;;4.98;100.00
45275;BME280;31019;43.780;25.948;2024-03-22T07:24:21;101759.63;;;4.82;100.00
45275;BME280;31019;43.780;25.948;2024-03-22T07:26:49;101761.22;;;5.03;100.00
45275;BME280;31019;43.780;25.948;2024-03-22T07:29:16;101754.91;;;4.76;100.00
45275;BME280;31019;43.780;25.948;2024-03-22T07:31:42;101763.09;;;5.48;100.00
45275;BME280;31019;43.780;25.948;2024-03-22T07:34:11;101754.91;;;5.23;100.00
45275;BME280;31019;43.780;25.948;2024-03-22T07:36:37;101759.94;;;4.50;100.00
45275;BME280;31019;43.780;25.948;2024-03-22T07:39:05;101765.34;;;4.58;100.00
45275;BME280;31019;43.780;25.948;2024-03-22T07:41:31;101767.44;;;5.12;100.00
45275;BME280;31019;43.780;25.948;2024-03-22T07:43:59;101761.41;;;4.82;100.00
45275;BME280;31019;43.780;25.948;2024-03-22T07:46:25;101769.38;;;5.10;100.00
45275;BME280;31019;43.780;25.948;2024-03-22T07:48:53;101766.09;;;4.98;100.00
45275;BME280;31019;43.780;25.948;2024-03-22T07:51:20;101772.66;;;5.21;100.00
45275;BME280;31019;43.780;25.948;2024-03-22T07:53:47;101773.00;;;5.36;100.00
45275;BME280;31019;43.780;25.948;2024-03-22T07:56:13;101766.47;;;4.46;100.00
45275;BME280;31019;43.780;25.948;2024-03-22T07:58:41;101766.38;;;4.95;100.00
45275;BME280;31019;43.780;25.948;2024-03-22T08:01:09;101771.47;;;4.40;100.00
45275;BME280;31019;43.780;25.948;2024-03-22T08:03:36;101775.88;;;5.70;100.00
45275;BME280;31019;43.780;25.948;2024-03-22T08:06:02;101778.16;;;5.83;100.00
45275;BME280;31019;43.780;25.948;2024-03-22T08:08:30;101768.75;;;4.88;100.00
45275;BME280;31019;43.780;25.948;2024-03-22T08:10:56;101776.69;;;5.99;100.00
45275;BME280;31019;43.780;25.948;2024-03-22T08:13:24;101775.41;;;5.57;100.00
45275;BME280;31019;43.780;25.948;2024-03-22T08:15:50;101765.00;;;6.19;100.00
45275;BME280;31019;43.780;25.948;2024-03-22T08:18:17;101771.56;;;5.97;100.00
45275;BME280;31019;43.780;25.948;2024-03-22T08:20:43;101783.72;;;5.80;100.00
45275;BME280;31019;43.780;25.948;2024-03-22T08:23:10;101778.91;;;5.76;100.00
45275;BME280;31019;43.780;25.948;2024-03-22T08:25:38;101775.09;;;7.20;100.00
45275;BME280;31019;43.780;25.948;2024-03-22T08:28:05;101771.97;;;6.64;100.00
45275;BME280;31019;43.780;25.948;2024-03-22T08:30:31;101767.88;;;6.96;100.00
45275;BME280;31019;43.780;25.948;2024-03-22T08:32:58;101770.09;;;6.82;100.00
45275;BME280;31019;43.780;25.948;2024-03-22T08:35:24;101775.56;;;6.81;100.00
45275;BME280;31019;43.780;25.948;2024-03-22T08:37:51;101771.88;;;6.30;100.00
45275;BME280;31019;43.780;25.948;2024-03-22T08:40:17;101773.88;;;7.40;100.00
45275;BME280;31019;43.780;25.948;2024-03-22T08:42:50;101771.56;;;7.03;100.00
45275;BME280;31019;43.780;25.948;2024-03-22T08:45:16;101763.16;;;8.58;100.00
45275;BME280;31019;43.780;25.948;2024-03-22T08:47:43;101770.88;;;9.00;100.00
45275;BME280;31019;43.780;25.948;2024-03-22T08:50:11;101764.81;;;7.08;100.00
45275;BME280;31019;43.780;25.948;2024-03-22T08:52:38;101774.09;;;7.55;100.00
45275;BME280;31019;43.780;25.948;2024-03-22T08:55:04;101764.41;;;9.50;100.00
45275;BME280;31019;43.780;25.948;2024-03-22T08:57:32;101755.19;;;10.76;100.00
45275;BME280;31019;43.780;25.948;2024-03-22T09:00:00;101745.91;;;10.57;100.00
45275;BME280;31019;43.780;25.948;2024-03-22T09:02:27;101745.72;;;10.59;100.00
45275;BME280;31019;43.780;25.948;2024-03-22T09:04:53;101745.75;;;9.67;100.00
45275;BME280;31019;43.780;25.948;2024-03-22T09:07:21;101735.38;;;10.26;100.00
45275;BME280;31019;43.780;25.948;2024-03-22T09:09:49;101739.41;;;10.60;100.00
45275;BME280;31019;43.780;25.948;2024-03-22T09:12:16;101735.28;;;10.57;100.00
45275;BME280;31019;43.780;25.948;2024-03-22T09:14:42;101734.50;;;10.11;100.00
45275;BME280;31019;43.780;25.948;2024-03-22T09:17:11;101729.53;;;12.50;100.00
45275;BME280;31019;43.780;25.948;2024-03-22T09:19:37;101730.00;;;11.89;100.00
45275;BME280;31019;43.780;25.948;2024-03-22T09:22:04;101724.56;;;11.24;100.00
45275;BME280;31019;43.780;25.948;2024-03-22T09:24:30;101721.66;;;11.05;100.00
45275;BME280;31019;43.780;25.948;2024-03-22T09:26:58;101715.09;;;11.73;100.00
45275;BME280;31019;43.780;25.948;2024-03-22T09:29:24;101716.47;;;10.29;100.00
45275;BME280;31019;43.780;25.948;2024-03-22T09:31:51;101713.09;;;11.97;100.00
45275;BME280;31019;43.780;25.948;2024-03-22T09:34:19;101703.72;;;12.50;100.00
45275;BME280;31019;43.780;25.948;2024-03-22T09:36:46;101708.78;;;11.38;100.00
45275;BME280;31019;43.780;25.948;2024-03-22T09:39:12;101699.31;;;12.71;100.00
45275;BME280;31019;43.780;25.948;2024-03-22T09:41:42;101703.25;;;12.19;100.00
45275;BME280;31019;43.780;25.948;2024-03-22T09:44:13;101701.72;;;11.66;100.00
45275;BME280;31019;43.780;25.948;2024-03-22T09:46:42;101695.78;;;11.86;100.00
45275;BME280;31019;43.780;25.948;2024-03-22T09:49:09;101687.00;;;14.46;100.00
45275;BME280;31019;43.780;25.948;2024-03-22T09:51:39;101694.13;;;12.06;100.00
45275;BME280;31019;43.780;25.948;2024-03-22T09:54:05;101689.03;;;13.02;100.00
45275;BME280;31019;43.780;25.948;2024-03-22T09:56:32;101688.63;;;13.05;100.00
45275;BME280;31019;43.780;25.948;2024-03-22T09:58:59;101692.22;;;11.06;100.00
45275;BME280;31019;43.780;25.948;2024-03-22T10:01:26;101688.31;;;11.96;100.00
45275;BME280;31019;43.780;25.948;2024-03-22T10:03:53;101676.94;;;10.64;100.00
45275;BME280;31019;43.780;25.948;2024-03-22T10:06:21;101673.91;;;10.82;100.00
45275;BME280;31019;43.780;25.948;2024-03-22T10:08:49;101665.50;;;12.43;100.00
45275;BME280;31019;43.780;25.948;2024-03-22T10:11:16;101669.50;;;12.54;100.00
45275;BME280;31019;43.780;25.948;2024-03-22T10:13:43;101674.81;;;10.44;100.00
45275;BME280;31019;43.780;25.948;2024-03-22T10:16:12;101667.22;;;13.40;100.00
45275;BME280;31019;43.780;25.948;2024-03-22T10:18:41;101650.88;;;14.23;100.00
45275;BME280;31019;43.780;25.948;2024-03-22T10:21:09;101650.06;;;13.96;100.00
45275;BME280;31019;43.780;25.948;2024-03-22T10:23:35;101661.38;;;14.05;100.00
45275;BME280;31019;43.780;25.948;2024-03-22T10:26:04;101655.81;;;14.00;100.00
45275;BME280;31019;43.780;25.948;2024-03-22T10:28:31;101651.91;;;14.22;100.00
45275;BME280;31019;43.780;25.948;2024-03-22T10:30:58;101653.94;;;14.53;100.00
45275;BME280;31019;43.780;25.948;2024-03-22T10:33:24;101648.22;;;13.09;100.00
45275;BME280;31019;43.780;25.948;2024-03-22T10:35:53;101645.88;;;13.34;100.00
45275;BME280;31019;43.780;25.948;2024-03-22T10:38:20;101645.44;;;13.30;100.00
45275;BME280;31019;43.780;25.948;2024-03-22T10:40:48;101634.56;;;13.25;100.00
45275;BME280;31019;43.780;25.948;2024-03-22T10:43:16;101629.03;;;13.33;100.00
45275;BME280;31019;43.780;25.948;2024-03-22T10:45:48;101628.78;;;13.21;100.00
45275;BME280;31019;43.780;25.948;2024-03-22T10:48:16;101628.22;;;14.39;100.00
45275;BME280;31019;43.780;25.948;2024-03-22T10:50:44;101617.00;;;13.77;100.00
45275;BME280;31019;43.780;25.948;2024-03-22T10:53:14;101601.22;;;14.67;100.00
45275;BME280;31019;43.780;25.948;2024-03-22T10:55:45;101604.03;;;14.85;100.00
45275;BME280;31019;43.780;25.948;2024-03-22T10:58:16;101606.97;;;15.16;100.00
45275;BME280;31019;43.780;25.948;2024-03-22T11:00:43;101593.88;;;15.39;100.00
45275;BME280;31019;43.780;25.948;2024-03-22T11:03:10;101598.38;;;13.09;100.00
45275;BME280;31019;43.780;25.948;2024-03-22T11:05:45;101594.13;;;14.28;100.00
45275;BME280;31019;43.780;25.948;2024-03-22T11:08:11;101599.19;;;13.10;100.00
45275;BME280;31019;43.780;25.948;2024-03-22T11:10:38;101596.03;;;13.41;100.00
45275;BME280;31019;43.780;25.948;2024-03-22T11:13:06;101590.59;;;11.47;100.00
45275;BME280;31019;43.780;25.948;2024-03-22T11:15:35;101595.78;;;15.32;100.00
45275;BME280;31019;43.780;25.948;2024-03-22T11:18:02;101587.63;;;13.84;100.00
45275;BME280;31019;43.780;25.948;2024-03-22T11:20:29;101590.06;;;13.32;100.00
45275;BME280;31019;43.780;25.948;2024-03-22T11:22:56;101587.50;;;17.19;99.70
45275;BME280;31019;43.780;25.948;2024-03-22T11:25:23;101575.53;;;15.11;84.94
45275;BME280;31019;43.780;25.948;2024-03-22T11:27:49;101582.78;;;13.13;100.00
45275;BME280;31019;43.780;25.948;2024-03-22T11:30:17;101570.41;;;15.91;98.89
45275;BME280;31019;43.780;25.948;2024-03-22T11:32:44;101564.38;;;14.04;100.00
45275;BME280;31019;43.780;25.948;2024-03-22T11:35:12;101562.94;;;15.75;100.00
45275;BME280;31019;43.780;25.948;2024-03-22T11:37:39;101550.56;;;16.36;96.48
45275;BME280;31019;43.780;25.948;2024-03-22T11:40:08;101554.63;;;16.75;81.35
45275;BME280;31019;43.780;25.948;2024-03-22T11:42:36;101547.69;;;15.75;100.00
45275;BME280;31019;43.780;25.948;2024-03-22T11:45:04;101549.34;;;16.87;91.46
45275;BME280;31019;43.780;25.948;2024-03-22T11:47:32;101540.75;;;15.61;100.00
45275;BME280;31019;43.780;25.948;2024-03-22T11:50:01;101533.91;;;14.32;100.00
45275;BME280;31019;43.780;25.948;2024-03-22T11:52:32;101539.03;;;14.27;100.00
45275;BME280;31019;43.780;25.948;2024-03-22T11:55:00;101534.19;;;15.07;100.00
45275;BME280;31019;43.780;25.948;2024-03-22T11:57:27;101535.53;;;14.33;100.00
45275;BME280;31019;43.780;25.948;2024-03-22T11:59:59;101526.34;;;16.42;100.00
45275;BME280;31019;43.780;25.948;2024-03-22T12:02:26;101535.06;;;17.05;91.67
45275;BME280;31019;43.780;25.948;2024-03-22T12:04:54;101527.13;;;16.31;99.11
45275;BME280;31019;43.780;25.948;2024-03-22T12:07:21;101530.84;;;14.28;95.64
45275;BME280;31019;43.780;25.948;2024-03-22T12:09:48;101515.75;;;15.24;100.00
45275;BME280;31019;43.780;25.948;2024-03-22T12:12:14;101514.78;;;14.35;100.00
45275;BME280;31019;43.780;25.948;2024-03-22T12:14:41;101513.78;;;16.06;100.00
45275;BME280;31019;43.780;25.948;2024-03-22T12:17:07;101517.34;;;14.68;100.00
45275;BME280;31019;43.780;25.948;2024-03-22T12:19:34;101514.22;;;14.71;100.00
45275;BME280;31019;43.780;25.948;2024-03-22T12:22:01;101511.34;;;12.81;100.00
45275;BME280;31019;43.780;25.948;2024-03-22T12:24:31;101508.31;;;13.24;100.00
45275;BME280;31019;43.780;25.948;2024-03-22T12:26:59;101508.13;;;13.92;100.00
45275;BME280;31019;43.780;25.948;2024-03-22T12:29:26;101497.06;;;13.22;100.00
45275;BME280;31019;43.780;25.948;2024-03-22T12:31:53;101491.88;;;15.72;100.00
45275;BME280;31019;43.780;25.948;2024-03-22T12:34:20;101490.41;;;15.26;100.00